CheckWX is a tool to help pilots better visualize weather data.  It is not intended as a substitute for an official pre-flight weather briefing.

10:28:18 UTC

SARE TAF
Resistencia International Airport
Resistencia, Argentina
TAF SARE 260500Z 2606/2706 20005KT CAVOK TX16/2618Z TN05/2609Z PROB30 2608/2611 3000 BR NSC BECMG 2615/2616 09005KT CAVOK

Jun-26@
06:00 UTC

Jun-26 @ 06:00 UTC

Jun-26@
15:00 UTC

Jun-26 @ 15:00 UTC

TAF SARE 260500Z 2606/2706 20005KT CAVOK TX16/2618Z TN05/2609Z
Wind
  • 200° at 5 KTS
Cloud Levels
  • No significant clouds

Jun-26@
08:00 UTC

Jun-26 @ 08:00 UTC

Jun-26@
11:00 UTC

Jun-26 @ 11:00 UTC

PROB30 2608/2611 3000 BR NSC

Probable - 30% Likelihood

Probable - 30% Likelihood during this time.

Conditions
Mist
Cloud Levels
  • No significant clouds

Jun-26@
15:00 UTC

Jun-26 @ 15:00 UTC

Jun-27@
06:00 UTC

Jun-27 @ 06:00 UTC

BECMG 2615/2616 09005KT CAVOK

Becoming

Becoming Conditions expected by Wed, Jun 26, 2019 @ 16:00 UTC

Wind
  • 090° at 5 KTS
Conditions
No significant weather
Cloud Levels
  • No significant clouds